»·PEaware :: N172TT KAVX-KSAN

N172TT :: KAVX-KSAN

FLIGHT INFORMATION

Flight Status: Arrived
Operator: Privately registered:
United States
More flights under this callsign
Pilot: Thomas T. (19955)
Aircraft: BEECH AIRCRAFT BARON
(BE58)
More flights by this aircraft type
Origin: KAVX Catalina
United States
Destination: KSAN San Diego Intl-Lindbergh
United States
More flights between these airports :: More routes between these airports
Route: SXC V208 OCN V23 MZB
File this flight plan on PilotEdge
Remarks: TEC route CSTP56
Altitude:
(Current/Filed)
5,000ft
Speed:
(Current/Filed)
168kts
Departed: 08-Nov-18 12:20 PM
Arrived: 08-Nov-18 01:10 PM
Distance/Time
Traveled:
74nm/0:50
Distance/Time
To Go:
Arrived

Flight Plot

Page will automatically refresh every two minutes.


Map Options




Map Legend


Flown Route
Filed Route
Departure Airport
Arrival Airport
Navaid (VOR, NDB)
Fix

Horizontal Profiles

Position Reports

Time Latitude Longitude Heading Altitude Ground
Speed
08-Nov-18 12:15 33.403514 -118.415932 57 1548ft 0kts
08-Nov-18 12:16 33.403514 -118.415932 57 1548ft 0kts
08-Nov-18 12:17 33.403514 -118.415932 57 1548ft 0kts
08-Nov-18 12:18 33.403577 -118.415461 69 1545ft 13kts
08-Nov-18 12:19 33.406694 -118.412204 52 1505ft 17kts
08-Nov-18 12:20 33.407091 -118.411530 51 1498ft 0kts
08-Nov-18 12:21 33.407091 -118.411530 51 1498ft 0kts
08-Nov-18 12:22 33.407402 -118.411687 233 1498ft 0kts
08-Nov-18 12:23 33.397360 -118.428997 237 1908ft 128kts
08-Nov-18 12:24 33.368422 -118.420054 138 3214ft 150kts
08-Nov-18 12:25 33.346556 -118.374083 93 3394ft 176kts
08-Nov-18 12:26 33.351351 -118.317317 78 3760ft 175kts
08-Nov-18 12:27 33.353560 -118.264711 97 4170ft 174kts
08-Nov-18 12:28 33.346938 -118.210679 95 4595ft 175kts
08-Nov-18 12:29 33.340654 -118.158161 96 4996ft 177kts
08-Nov-18 12:30 33.332672 -118.097008 97 4984ft 191kts
08-Nov-18 12:31 33.324303 -118.033957 97 4980ft 193kts
08-Nov-18 12:32 33.315834 -117.970434 97 4977ft 194kts
08-Nov-18 12:33 33.307299 -117.906664 98 5016ft 194kts
08-Nov-18 12:34 33.298636 -117.842174 98 5022ft 198kts
08-Nov-18 12:35 33.289831 -117.777119 98 5021ft 199kts
08-Nov-18 12:36 33.280949 -117.711654 98 5022ft 199kts
08-Nov-18 12:37 33.272096 -117.646648 98 5022ft 199kts
08-Nov-18 12:38 33.263153 -117.581311 98 5022ft 199kts
08-Nov-18 12:39 33.255676 -117.526951 97 5018ft 198kts
08-Nov-18 12:40 33.246856 -117.462867 97 5013ft 195kts
08-Nov-18 12:41 33.214087 -117.407221 159 5011ft 195kts
08-Nov-18 12:42 33.172398 -117.389020 160 5010ft 188kts
08-Nov-18 12:43 33.124377 -117.368742 160 5011ft 178kts
08-Nov-18 12:44 33.071346 -117.346444 160 5012ft 175kts
08-Nov-18 12:45 33.033317 -117.330216 158 5012ft 175kts
08-Nov-18 12:46 32.987918 -117.308856 158 5013ft 175kts
08-Nov-18 12:47 32.942837 -117.289315 160 5012ft 175kts
08-Nov-18 12:48 32.897724 -117.270009 160 5010ft 176kts
08-Nov-18 12:49 32.851888 -117.249337 160 5008ft 176kts
08-Nov-18 12:50 32.806623 -117.228121 162 5007ft 174kts
08-Nov-18 12:51 32.761947 -117.208140 162 5008ft 173kts
08-Nov-18 12:52 32.724813 -117.177025 104 5013ft 179kts
08-Nov-18 12:53 32.724406 -117.118209 81 5011ft 179kts
08-Nov-18 12:54 32.730249 -117.059837 81 5012ft 178kts
08-Nov-18 12:55 32.735883 -117.009016 79 5012ft 176kts
08-Nov-18 12:56 32.741973 -116.958089 79 5013ft 174kts
08-Nov-18 12:57 32.748233 -116.910939 78 5014ft 172kts
08-Nov-18 12:58 32.755198 -116.859454 78 5015ft 170kts
08-Nov-18 12:59 32.762301 -116.807202 78 5016ft 170kts
08-Nov-18 13:00 32.769383 -116.755134 78 5017ft 169kts
08-Nov-18 13:01 32.772017 -116.703224 123 5014ft 173kts
08-Nov-18 13:02 32.739014 -116.719142 253 5016ft 167kts
08-Nov-18 13:03 32.725773 -116.768940 254 5012ft 168kts
08-Nov-18 13:04 32.707820 -116.819153 251 5010ft 168kts
08-Nov-18 13:05 32.691045 -116.873298 251 4185ft 181kts
08-Nov-18 13:06 32.674770 -116.925775 251 3827ft 156kts
08-Nov-18 13:07 32.680435 -116.971389 287 3611ft 155kts
08-Nov-18 13:08 32.692183 -117.019703 287 2902ft 168kts
08-Nov-18 13:09 32.704696 -117.070652 286 2057ft 160kts
08-Nov-18 13:10 32.714542 -117.111442 285 1546ft 96kts
08-Nov-18 13:11 32.721965 -117.141865 285 892ft 94kts
08-Nov-18 13:12 32.729225 -117.171771 285 235ft 97kts
08-Nov-18 13:13 32.732601 -117.188527 212 12ft 0kts
08-Nov-18 13:14 32.732348 -117.190369 216 12ft 11kts
08-Nov-18 13:15 32.731227 -117.190102 294 11ft 0kts
08-Nov-18 13:16 32.731227 -117.190102 294 11ft 0kts

Navigation Log

Ident Type
1. KAVX Airport
2. SXC Navaid
3. AVOLS Fix
4. PACIF Fix
5. HUBRD Fix
6. OCN Navaid
7. HURSI Fix
8. CARIF Fix
9. MZB Navaid
10. KSAN Airport